createdAt,value
2017-03-27T00:00:30.101Z,0
2017-03-27T00:01:39.308Z,0
2017-03-27T00:02:48.196Z,0
2017-03-27T00:03:57.090Z,0
2017-03-27T00:05:05.977Z,0
2017-03-27T00:06:14.551Z,0
2017-03-27T00:07:23.752Z,0
2017-03-27T00:08:32.635Z,0
2017-03-27T00:09:41.206Z,0
2017-03-27T00:10:50.096Z,0
2017-03-27T00:11:58.981Z,0
2017-03-27T00:13:07.869Z,0
2017-03-27T00:14:17.079Z,0
2017-03-27T00:15:26.282Z,0
2017-03-27T00:16:35.189Z,0
2017-03-27T00:17:44.399Z,0
2017-03-27T00:18:53.752Z,0
2017-03-27T00:20:03.737Z,0
2017-03-27T00:21:13.299Z,0
2017-03-27T00:22:22.941Z,0
2017-03-27T00:23:32.118Z,0
2017-03-27T00:24:41.435Z,0
2017-03-27T00:25:50.442Z,0
2017-03-27T00:26:59.018Z,0
2017-03-27T00:28:08.299Z,0
2017-03-27T00:29:17.554Z,0
2017-03-27T00:30:26.442Z,0
2017-03-27T00:31:35.008Z,0
2017-03-27T00:32:43.901Z,0
2017-03-27T00:33:53.141Z,0
2017-03-27T00:35:01.720Z,0
2017-03-27T00:36:10.319Z,0
2017-03-27T00:37:19.519Z,0
2017-03-27T00:38:28.972Z,0
2017-03-27T00:39:37.554Z,0
2017-03-27T00:40:46.451Z,0
2017-03-27T00:41:55.336Z,0
2017-03-27T00:43:04.226Z,0
2017-03-27T00:44:13.440Z,0
2017-03-27T00:45:22.009Z,0
2017-03-27T00:46:31.208Z,0
2017-03-27T00:47:40.096Z,0
2017-03-27T00:48:48.990Z,0
2017-03-27T00:49:57.881Z,0
2017-03-27T00:51:06.771Z,0
2017-03-27T00:52:15.341Z,0
2017-03-27T00:53:24.543Z,0
2017-03-27T00:54:33.432Z,0
2017-03-27T00:55:42.643Z,0
2017-03-27T00:56:51.977Z,0
2017-03-27T00:58:00.873Z,0
2017-03-27T00:59:09.827Z,0
2017-03-27T01:00:18.719Z,0
2017-03-27T01:01:27.285Z,0
2017-03-27T01:02:35.856Z,0
2017-03-27T01:03:45.380Z,0
2017-03-27T01:04:54.270Z,0
2017-03-27T01:06:03.154Z,0
2017-03-27T01:07:12.032Z,0
2017-03-27T01:08:20.957Z,0
2017-03-27T01:09:30.167Z,0
2017-03-27T01:10:38.793Z,0
2017-03-27T01:11:47.363Z,0
2017-03-27T01:12:56.607Z,0
2017-03-27T01:14:05.493Z,0
2017-03-27T01:15:14.065Z,0
2017-03-27T01:16:22.637Z,0
2017-03-27T01:17:31.210Z,0
2017-03-27T01:18:39.788Z,0
2017-03-27T01:19:48.688Z,0
2017-03-27T01:20:58.382Z,0
2017-03-27T01:22:06.965Z,0
2017-03-27T01:23:15.541Z,0
2017-03-27T01:24:24.769Z,0
2017-03-27T01:25:33.817Z,0
2017-03-27T01:26:43.598Z,0
2017-03-27T01:27:52.486Z,0
2017-03-27T01:29:01.385Z,0
2017-03-27T01:30:10.272Z,0
2017-03-27T01:31:18.850Z,0
2017-03-27T01:32:27.737Z,0
2017-03-27T01:33:36.619Z,0
2017-03-27T01:34:45.822Z,0
2017-03-27T01:35:55.024Z,0
2017-03-27T01:37:04.226Z,0
2017-03-27T01:38:13.752Z,0
2017-03-27T01:39:22.955Z,0
2017-03-27T01:40:31.842Z,0
2017-03-27T01:41:40.727Z,0
2017-03-27T01:42:49.296Z,0
2017-03-27T01:43:57.871Z,0
2017-03-27T01:45:07.074Z,0
2017-03-27T01:46:15.645Z,0
2017-03-27T01:47:24.537Z,0
2017-03-27T01:48:33.103Z,0
2017-03-27T01:49:41.999Z,0
2017-03-27T01:50:50.888Z,0
2017-03-27T01:51:59.770Z,0
2017-03-27T01:53:08.660Z,0
2017-03-27T01:54:17.544Z,0
2017-03-27T01:55:26.116Z,0
2017-03-27T01:56:35.318Z,0
2017-03-27T01:57:44.204Z,0
2017-03-27T01:58:53.099Z,0
2017-03-27T02:00:01.671Z,0
2017-03-27T02:01:10.578Z,0
2017-03-27T02:02:20.096Z,0
2017-03-27T02:03:29.348Z,0
2017-03-27T02:04:37.917Z,0
2017-03-27T02:05:46.800Z,0
2017-03-27T02:06:55.997Z,0
2017-03-27T02:08:04.885Z,0
2017-03-27T02:09:13.466Z,0
2017-03-27T02:10:22.033Z,0
2017-03-27T02:11:30.603Z,0
2017-03-27T02:12:39.172Z,0
2017-03-27T02:13:48.377Z,0
2017-03-27T02:14:57.260Z,0
2017-03-27T02:16:06.147Z,0
2017-03-27T02:17:15.027Z,0
2017-03-27T02:18:23.604Z,0
2017-03-27T02:19:32.496Z,0
2017-03-27T02:20:42.013Z,0
2017-03-27T02:21:51.214Z,0
2017-03-27T02:23:00.100Z,0
2017-03-27T02:24:08.676Z,0
2017-03-27T02:25:17.555Z,0
2017-03-27T02:26:26.437Z,0
2017-03-27T02:27:35.637Z,0
2017-03-27T02:28:44.843Z,0
2017-03-27T02:29:53.735Z,0
2017-03-27T02:31:02.303Z,0
2017-03-27T02:32:11.192Z,0
2017-03-27T02:33:19.759Z,0
2017-03-27T02:34:29.280Z,0
2017-03-27T02:35:38.168Z,0
2017-03-27T02:36:46.734Z,0
2017-03-27T02:37:55.941Z,0
2017-03-27T02:39:04.509Z,0
2017-03-27T02:40:13.398Z,0
2017-03-27T02:41:22.284Z,0
2017-03-27T02:42:32.127Z,0
2017-03-27T02:43:40.701Z,0
2017-03-27T02:44:49.916Z,0
2017-03-27T02:45:59.121Z,0
2017-03-27T02:47:08.638Z,0
2017-03-27T02:48:17.209Z,0
2017-03-27T02:49:26.098Z,0
2017-03-27T02:50:35.613Z,0
2017-03-27T02:51:44.180Z,0
2017-03-27T02:52:52.749Z,0
2017-03-27T02:54:01.637Z,0
2017-03-27T02:55:10.839Z,0
2017-03-27T02:56:19.407Z,0
2017-03-27T02:57:28.291Z,0
2017-03-27T02:58:37.169Z,0
2017-03-27T02:59:46.687Z,0
2017-03-27T03:00:55.256Z,0
2017-03-27T03:02:03.834Z,0
2017-03-27T03:03:12.720Z,0
2017-03-27T03:04:21.609Z,0
2017-03-27T03:05:30.812Z,0
2017-03-27T03:06:39.395Z,0
2017-03-27T03:07:48.916Z,0
2017-03-27T03:08:57.808Z,0
2017-03-27T03:10:06.891Z,0
2017-03-27T03:11:15.464Z,0
2017-03-27T03:12:24.346Z,0
2017-03-27T03:13:33.578Z,0
2017-03-27T03:14:42.465Z,0
2017-03-27T03:15:51.354Z,0
2017-03-27T03:17:00.560Z,0
2017-03-27T03:18:09.769Z,0
2017-03-27T03:19:18.664Z,0
2017-03-27T03:20:27.550Z,0
2017-03-27T03:21:36.119Z,0
2017-03-27T03:22:45.006Z,0
2017-03-27T03:23:53.586Z,0
2017-03-27T03:25:02.795Z,0
2017-03-27T03:26:11.361Z,0
2017-03-27T03:27:20.253Z,0
2017-03-27T03:28:29.455Z,0
2017-03-27T03:29:38.340Z,0
2017-03-27T03:30:46.906Z,0
2017-03-27T03:31:55.471Z,0
2017-03-27T03:33:05.312Z,0
2017-03-27T03:34:13.899Z,0
2017-03-27T03:35:22.464Z,0
2017-03-27T03:36:31.033Z,0
2017-03-27T03:37:39.918Z,0
2017-03-27T03:38:49.124Z,0
2017-03-27T03:39:57.703Z,0
2017-03-27T03:41:06.585Z,0
2017-03-27T03:42:15.468Z,0
2017-03-27T03:43:24.041Z,0
2017-03-27T03:44:32.930Z,0
2017-03-27T03:45:41.512Z,0
2017-03-27T03:46:50.086Z,0
2017-03-27T03:47:58.979Z,0
2017-03-27T03:49:07.553Z,0
2017-03-27T03:50:16.121Z,0
2017-03-27T03:51:24.686Z,0
2017-03-27T03:52:34.203Z,0
2017-03-27T03:53:43.407Z,0
2017-03-27T03:54:52.627Z,0
2017-03-27T03:56:01.514Z,0
2017-03-27T03:57:11.480Z,0
2017-03-27T03:58:20.989Z,0
2017-03-27T03:59:30.048Z,0
2017-03-27T04:00:39.613Z,0
2017-03-27T04:01:48.500Z,0
2017-03-27T04:02:57.072Z,0
2017-03-27T04:04:05.969Z,0
2017-03-27T04:05:14.855Z,0
2017-03-27T04:06:24.139Z,0
2017-03-27T04:07:32.743Z,0
2017-03-27T04:08:41.954Z,0
2017-03-27T04:09:50.926Z,0
2017-03-27T04:11:00.124Z,0
2017-03-27T04:12:09.691Z,0
2017-03-27T04:13:18.262Z,0
2017-03-27T04:14:27.171Z,0
2017-03-27T04:15:36.106Z,0
2017-03-27T04:16:45.040Z,0
2017-03-27T04:17:53.648Z,0
2017-03-27T04:19:02.594Z,0
2017-03-27T04:20:11.160Z,0
2017-03-27T04:21:20.039Z,0
2017-03-27T04:22:29.241Z,0
2017-03-27T04:23:37.816Z,0
2017-03-27T04:24:46.702Z,0
2017-03-27T04:25:55.298Z,0
2017-03-27T04:27:04.186Z,0
2017-03-27T04:28:13.394Z,0
2017-03-27T04:29:22.918Z,0
2017-03-27T04:30:32.127Z,0
2017-03-27T04:31:41.010Z,0
2017-03-27T04:32:49.899Z,0
2017-03-27T04:33:58.487Z,0
2017-03-27T04:35:07.422Z,0
2017-03-27T04:36:16.309Z,0
2017-03-27T04:37:25.194Z,0
2017-03-27T04:38:34.082Z,0
2017-03-27T04:39:42.972Z,0
2017-03-27T04:40:51.854Z,0
2017-03-27T04:42:00.420Z,0
2017-03-27T04:43:09.620Z,0
2017-03-27T04:44:18.829Z,0
2017-03-27T04:45:27.716Z,4
2017-03-27T04:46:36.285Z,0
2017-03-27T04:47:44.859Z,0
2017-03-27T04:48:53.749Z,4
2017-03-27T04:50:02.337Z,4
2017-03-27T04:51:11.541Z,4
2017-03-27T04:52:21.065Z,4
2017-03-27T04:53:30.823Z,4
2017-03-27T04:54:40.057Z,8
2017-03-27T04:55:48.945Z,8
2017-03-27T04:56:58.150Z,12
2017-03-27T04:58:06.719Z,16
2017-03-27T04:59:15.322Z,20
2017-03-27T05:00:23.884Z,20
2017-03-27T05:01:32.770Z,24
2017-03-27T05:02:41.338Z,28
2017-03-27T05:03:50.229Z,36
2017-03-27T05:04:59.115Z,40
2017-03-27T05:06:08.328Z,52
2017-03-27T05:07:16.892Z,60
2017-03-27T05:08:25.522Z,72
2017-03-27T05:09:34.413Z,84
2017-03-27T05:10:43.611Z,96
2017-03-27T05:11:53.132Z,112
2017-03-27T05:13:02.042Z,128
2017-03-27T05:14:11.246Z,148
2017-03-27T05:15:19.815Z,164
2017-03-27T05:16:28.378Z,188
2017-03-27T05:17:37.261Z,208
2017-03-27T05:18:46.162Z,232
2017-03-27T05:19:55.369Z,256
2017-03-27T05:21:04.256Z,284
2017-03-27T05:22:12.863Z,312
2017-03-27T05:23:22.075Z,344
2017-03-27T05:24:30.684Z,372
2017-03-27T05:25:39.285Z,408
2017-03-27T05:26:47.865Z,448
2017-03-27T05:27:56.758Z,488
2017-03-27T05:29:05.958Z,524
2017-03-27T05:30:15.159Z,568
2017-03-27T05:31:24.047Z,612
2017-03-27T05:32:32.936Z,652
2017-03-27T05:33:41.822Z,696
2017-03-27T05:34:50.706Z,740
2017-03-27T05:35:59.594Z,792
2017-03-27T05:37:08.511Z,836
2017-03-27T05:38:17.112Z,884
2017-03-27T05:39:25.995Z,932
2017-03-27T05:40:34.604Z,984
2017-03-27T05:41:43.798Z,1032
2017-03-27T05:42:52.380Z,1080
2017-03-27T05:44:01.271Z,1128
2017-03-27T05:45:09.839Z,1176
2017-03-27T05:46:18.728Z,1220
2017-03-27T05:47:27.617Z,1268
2017-03-27T05:48:36.839Z,1312
2017-03-27T05:49:46.023Z,1360
2017-03-27T05:50:54.593Z,1404
2017-03-27T05:52:03.793Z,1452
2017-03-27T05:53:13.004Z,1496
2017-03-27T05:54:21.885Z,1540
2017-03-27T05:55:31.402Z,1584
2017-03-27T05:56:40.295Z,1632
2017-03-27T05:57:49.179Z,1672
2017-03-27T05:58:57.752Z,1716
2017-03-27T06:00:06.640Z,1760
2017-03-27T06:01:15.206Z,1796
2017-03-27T06:02:24.092Z,1824
2017-03-27T06:03:32.678Z,1840
2017-03-27T06:04:41.247Z,1852
2017-03-27T06:05:50.445Z,1860
2017-03-27T06:06:59.020Z,1876
2017-03-27T06:08:07.903Z,1904
2017-03-27T06:09:17.103Z,1936
2017-03-27T06:10:26.304Z,1980
2017-03-27T06:11:35.506Z,2064
2017-03-27T06:12:44.082Z,2136
2017-03-27T06:13:52.973Z,2208
2017-03-27T06:15:02.492Z,2264
2017-03-27T06:16:11.058Z,2320
2017-03-27T06:17:19.943Z,2368
2017-03-27T06:18:28.827Z,2420
2017-03-27T06:19:37.727Z,2476
2017-03-27T06:20:46.933Z,2524
2017-03-27T06:21:55.815Z,2556
2017-03-27T06:23:05.385Z,2580
2017-03-27T06:24:14.306Z,2612
2017-03-27T06:25:22.948Z,2636
2017-03-27T06:26:31.882Z,2664
2017-03-27T06:27:40.469Z,2688
2017-03-27T06:28:49.097Z,2716
2017-03-27T06:29:58.005Z,2740
2017-03-27T06:31:06.920Z,2764
2017-03-27T06:32:15.976Z,2776
2017-03-27T06:33:24.680Z,2800
2017-03-27T06:34:33.744Z,2824
2017-03-27T06:35:42.431Z,2844
2017-03-27T06:36:51.217Z,2864
2017-03-27T06:38:00.160Z,2888
2017-03-27T06:39:09.046Z,2900
2017-03-27T06:40:18.031Z,2916
2017-03-27T06:41:27.439Z,2932
2017-03-27T06:42:36.681Z,2948
2017-03-27T06:43:45.570Z,2960
2017-03-27T06:44:54.844Z,2968
2017-03-27T06:46:03.738Z,2980
2017-03-27T06:47:12.942Z,2992
2017-03-27T06:48:21.831Z,3016
2017-03-27T06:49:31.054Z,3032
2017-03-27T06:50:39.623Z,3048
2017-03-27T06:51:49.128Z,3064
2017-03-27T06:52:58.346Z,3072
2017-03-27T06:54:07.064Z,3088
2017-03-27T06:55:15.952Z,3104
2017-03-27T06:56:24.533Z,3120
2017-03-27T06:57:33.422Z,3132
2017-03-27T06:58:42.624Z,3144
2017-03-27T06:59:51.548Z,3156
2017-03-27T07:01:00.436Z,3172
2017-03-27T07:02:09.369Z,3188
2017-03-27T07:03:18.281Z,3196
2017-03-27T07:04:27.167Z,3204
2017-03-27T07:05:36.054Z,3204
2017-03-27T07:06:45.264Z,3216
2017-03-27T07:07:54.466Z,3220
2017-03-27T07:09:03.043Z,3224
2017-03-27T07:10:12.245Z,3220
2017-03-27T07:11:21.455Z,3232
2017-03-27T07:12:30.355Z,3264
2017-03-27T07:13:39.253Z,3284
2017-03-27T07:14:48.163Z,3292
2017-03-27T07:15:57.065Z,3304
2017-03-27T07:17:05.645Z,3292
2017-03-27T07:18:14.217Z,3292
2017-03-27T07:19:23.142Z,3300
2017-03-27T07:20:32.354Z,3312
2017-03-27T07:21:41.237Z,3328
2017-03-27T07:22:50.127Z,3328
2017-03-27T07:23:58.699Z,3336
2017-03-27T07:25:07.601Z,3340
2017-03-27T07:26:16.490Z,3360
2017-03-27T07:27:25.374Z,3372
2017-03-27T07:28:34.259Z,3376
2017-03-27T07:29:43.149Z,3396
2017-03-27T07:30:51.718Z,3404
2017-03-27T07:32:00.289Z,3420
2017-03-27T07:33:09.500Z,3376
2017-03-27T07:34:18.713Z,3384
2017-03-27T07:35:27.599Z,3388
2017-03-27T07:36:36.487Z,3408
2017-03-27T07:37:45.381Z,3420
2017-03-27T07:38:56.537Z,3424
2017-03-27T07:40:06.053Z,3436
2017-03-27T07:41:14.939Z,3448
2017-03-27T07:42:23.828Z,3488
2017-03-27T07:43:33.035Z,3500
2017-03-27T07:44:41.927Z,3512
2017-03-27T07:45:50.811Z,3536
2017-03-27T07:47:00.075Z,3544
2017-03-27T07:48:09.087Z,3568
2017-03-27T07:49:17.979Z,3568
2017-03-27T07:50:27.184Z,3580
2017-03-27T07:51:36.398Z,3580
2017-03-27T07:52:45.290Z,3588
2017-03-27T07:53:54.500Z,3604
2017-03-27T07:55:03.730Z,3620
2017-03-27T07:56:12.617Z,3632
2017-03-27T07:57:21.758Z,3636
2017-03-27T07:58:30.655Z,3624
2017-03-27T07:59:39.865Z,3644
2017-03-27T08:00:48.444Z,3620
2017-03-27T08:01:57.383Z,3628
2017-03-27T08:03:06.908Z,3624
2017-03-27T08:04:15.801Z,3636
2017-03-27T08:05:24.711Z,3616
2017-03-27T08:06:33.918Z,3640
2017-03-27T08:07:43.148Z,3640
2017-03-27T08:08:51.737Z,3624
2017-03-27T08:10:00.402Z,3636
2017-03-27T08:11:09.350Z,3624
2017-03-27T08:12:18.036Z,3624
2017-03-27T08:13:26.869Z,3632
2017-03-27T08:14:36.197Z,3620
2017-03-27T08:15:45.205Z,3632
2017-03-27T08:16:53.932Z,3632
2017-03-27T08:18:02.536Z,3624
2017-03-27T08:19:11.434Z,3632
2017-03-27T08:20:20.651Z,3636
2017-03-27T08:21:29.231Z,3628
2017-03-27T08:22:37.806Z,3648
2017-03-27T08:23:47.335Z,3664
2017-03-27T08:24:56.231Z,3652
2017-03-27T08:26:05.757Z,3664
2017-03-27T08:27:14.330Z,3676
2017-03-27T08:28:23.538Z,3676
2017-03-27T08:29:32.822Z,3688
2017-03-27T08:30:41.485Z,3692
2017-03-27T08:31:50.060Z,3716
2017-03-27T08:32:58.959Z,3720
2017-03-27T08:34:08.171Z,3724
2017-03-27T08:35:16.857Z,3712
2017-03-27T08:36:25.755Z,3724
2017-03-27T08:37:34.659Z,3708
2017-03-27T08:38:43.494Z,3708
2017-03-27T08:39:52.737Z,3708
2017-03-27T08:41:01.629Z,3708
2017-03-27T08:42:10.210Z,3708
2017-03-27T08:43:18.790Z,3716
2017-03-27T08:44:27.373Z,3712
2017-03-27T08:45:36.263Z,3720
2017-03-27T08:46:45.677Z,3724
2017-03-27T08:47:54.578Z,3728
2017-03-27T08:49:03.166Z,3740
2017-03-27T08:50:11.761Z,3744
2017-03-27T08:51:20.886Z,3736
2017-03-27T08:52:29.845Z,3744
2017-03-27T08:53:38.452Z,3744
2017-03-27T08:54:47.068Z,3752
2017-03-27T08:55:55.892Z,3748
2017-03-27T08:57:04.525Z,3748
2017-03-27T08:58:13.418Z,3744
2017-03-27T08:59:22.313Z,3736
2017-03-27T09:00:31.203Z,3736
2017-03-27T09:01:40.409Z,3728
2017-03-27T09:02:49.709Z,3736
2017-03-27T09:03:59.387Z,3744
2017-03-27T09:05:08.595Z,3756
2017-03-27T09:06:17.691Z,3772
2017-03-27T09:07:26.582Z,3776
2017-03-27T09:08:35.794Z,3776
2017-03-27T09:09:45.003Z,3772
2017-03-27T09:10:53.899Z,3760
2017-03-27T09:12:02.788Z,3756
2017-03-27T09:13:11.361Z,3748
2017-03-27T09:14:20.252Z,3744
2017-03-27T09:15:29.472Z,3732
2017-03-27T09:16:38.670Z,3732
2017-03-27T09:17:47.569Z,3740
2017-03-27T09:18:56.462Z,3740
2017-03-27T09:20:05.366Z,3744
2017-03-27T09:21:14.270Z,3752
2017-03-27T09:22:22.842Z,3752
2017-03-27T09:23:31.751Z,3760
2017-03-27T09:24:41.244Z,3760
2017-03-27T09:25:49.874Z,3748
2017-03-27T09:26:58.760Z,3740
2017-03-27T09:28:08.287Z,3724
2017-03-27T09:29:17.491Z,3712
2017-03-27T09:30:26.378Z,3708
2017-03-27T09:31:35.591Z,3692
2017-03-27T09:32:44.493Z,3692
2017-03-27T09:33:53.064Z,3696
2017-03-27T09:35:02.271Z,3684
2017-03-27T09:36:10.842Z,3676
2017-03-27T09:37:19.754Z,3664
2017-03-27T09:38:28.653Z,3612
2017-03-27T09:39:37.549Z,3644
2017-03-27T09:40:46.458Z,3640
2017-03-27T09:41:55.360Z,3640
2017-03-27T09:43:04.253Z,3652
2017-03-27T09:44:13.143Z,3656
2017-03-27T09:45:21.718Z,3640
2017-03-27T09:46:30.607Z,3644
2017-03-27T09:47:39.175Z,3648
2017-03-27T09:48:48.382Z,3640
2017-03-27T09:49:57.272Z,3640
2017-03-27T09:51:06.548Z,3640
2017-03-27T09:52:15.759Z,3672
2017-03-27T09:53:24.966Z,3724
2017-03-27T09:54:33.868Z,3776
2017-03-27T09:55:42.761Z,3840
2017-03-27T09:56:51.964Z,3880
2017-03-27T09:58:00.852Z,3856
2017-03-27T09:59:09.748Z,3928
2017-03-27T10:00:18.959Z,3920
2017-03-27T10:01:28.163Z,3944
2017-03-27T10:02:36.738Z,3944
2017-03-27T10:03:45.321Z,3956
2017-03-27T10:04:54.547Z,3964
2017-03-27T10:06:03.778Z,3968
2017-03-27T10:07:12.994Z,3980
2017-03-27T10:08:21.616Z,3984
2017-03-27T10:09:30.548Z,3976
2017-03-27T10:10:39.467Z,3964
2017-03-27T10:11:48.786Z,3964
2017-03-27T10:12:57.679Z,3960
2017-03-27T10:14:06.359Z,3972
2017-03-27T10:15:15.563Z,3976
2017-03-27T10:16:24.448Z,3988
2017-03-27T10:17:33.026Z,4008
2017-03-27T10:18:42.232Z,4012
2017-03-27T10:19:51.443Z,4008
2017-03-27T10:21:00.017Z,3992
2017-03-27T10:22:08.601Z,3996
2017-03-27T10:23:18.069Z,4012
2017-03-27T10:24:26.657Z,4008
2017-03-27T10:25:35.246Z,4012
2017-03-27T10:26:44.459Z,3980
2017-03-27T10:27:53.048Z,3976
2017-03-27T10:29:01.627Z,3980
2017-03-27T10:30:10.518Z,3996
2017-03-27T10:31:19.407Z,4008
2017-03-27T10:32:27.985Z,4020
2017-03-27T10:33:37.130Z,4036
2017-03-27T10:34:46.369Z,4056
2017-03-27T10:35:55.265Z,4052
2017-03-27T10:37:03.839Z,4040
2017-03-27T10:38:12.735Z,4024
2017-03-27T10:39:21.630Z,4020
2017-03-27T10:40:30.202Z,4012
2017-03-27T10:41:39.731Z,4004
2017-03-27T10:42:48.307Z,3992
2017-03-27T10:43:57.092Z,4000
2017-03-27T10:45:08.937Z,3992
2017-03-27T10:46:17.833Z,4252
2017-03-27T10:47:26.732Z,4256
2017-03-27T10:48:35.314Z,4264
2017-03-27T10:49:43.894Z,4272
2017-03-27T10:50:52.838Z,4264
2017-03-27T10:52:01.422Z,4272
2017-03-27T10:53:10.000Z,4272
2017-03-27T10:54:19.527Z,4264
2017-03-27T10:55:28.734Z,4264
2017-03-27T10:56:37.319Z,4256
2017-03-27T10:57:46.210Z,4288
2017-03-27T10:58:54.789Z,4304
2017-03-27T11:00:03.804Z,4300
2017-03-27T11:01:12.413Z,4096
2017-03-27T11:02:21.623Z,4100
2017-03-27T11:03:30.831Z,4100
2017-03-27T11:04:40.057Z,4100
2017-03-27T11:05:48.958Z,4092
2017-03-27T11:06:57.843Z,4088
2017-03-27T11:08:06.416Z,4076
2017-03-27T11:09:14.992Z,4068
2017-03-27T11:10:23.573Z,4064
2017-03-27T11:11:32.462Z,4052
2017-03-27T11:12:41.674Z,4052
2017-03-27T11:13:50.258Z,4044
2017-03-27T11:14:59.808Z,4040
2017-03-27T11:16:08.708Z,4040
2017-03-27T11:17:17.604Z,4024
2017-03-27T11:18:26.809Z,4020
2017-03-27T11:19:36.338Z,4020
2017-03-27T11:20:45.241Z,4036
2017-03-27T11:21:54.779Z,3948
2017-03-27T11:23:03.367Z,3972
2017-03-27T11:24:12.578Z,3968
2017-03-27T11:25:22.134Z,3976
2017-03-27T11:26:31.091Z,3996
2017-03-27T11:27:40.008Z,3992
2017-03-27T11:28:49.256Z,3988
2017-03-27T11:29:57.913Z,3984
2017-03-27T11:31:07.668Z,3992
2017-03-27T11:32:17.493Z,3984
2017-03-27T11:33:26.796Z,3996
2017-03-27T11:34:35.740Z,4016
2017-03-27T11:35:44.768Z,4032
2017-03-27T11:36:53.757Z,4020
2017-03-27T11:38:02.669Z,4032
2017-03-27T11:39:11.269Z,4048
2017-03-27T11:40:21.340Z,4040
2017-03-27T11:41:30.095Z,4044
2017-03-27T11:42:39.047Z,4044
2017-03-27T11:43:48.320Z,4056
2017-03-27T11:44:57.294Z,4056
2017-03-27T11:46:06.279Z,4036
2017-03-27T11:47:15.994Z,4032
2017-03-27T11:48:24.982Z,4040
2017-03-27T11:49:33.577Z,4056
2017-03-27T11:50:42.586Z,4056
2017-03-27T11:51:51.232Z,4036
2017-03-27T11:53:00.142Z,4020
2017-03-27T11:54:08.759Z,4056
2017-03-27T11:55:17.995Z,4084
2017-03-27T11:56:26.898Z,4108
2017-03-27T11:57:35.491Z,4108
2017-03-27T11:58:45.044Z,4112
2017-03-27T11:59:54.262Z,4108
2017-03-27T12:01:03.491Z,4104
2017-03-27T12:02:12.731Z,4104
2017-03-27T12:03:21.666Z,4092
2017-03-27T12:04:30.573Z,4096
2017-03-27T12:05:39.173Z,4124
2017-03-27T12:06:48.078Z,4140
2017-03-27T12:07:56.979Z,4148
2017-03-27T12:09:05.563Z,4172
2017-03-27T12:10:14.459Z,4188
2017-03-27T12:11:23.359Z,4168
2017-03-27T12:12:32.253Z,4156
2017-03-27T12:13:41.154Z,4152
2017-03-27T12:14:49.738Z,4112
2017-03-27T12:15:58.956Z,4088
2017-03-27T12:17:08.190Z,4108
2017-03-27T12:18:17.397Z,4104
2017-03-27T12:19:26.287Z,4100
2017-03-27T12:20:35.495Z,4116
2017-03-27T12:21:44.385Z,4108
2017-03-27T12:22:52.974Z,4104
2017-03-27T12:24:01.937Z,4108
2017-03-27T12:25:11.156Z,4100
2017-03-27T12:26:19.776Z,4084
2017-03-27T12:27:28.985Z,4076
2017-03-27T12:28:38.205Z,4072
2017-03-27T12:29:47.096Z,4076
2017-03-27T12:30:55.673Z,4076
2017-03-27T12:32:05.048Z,4076
2017-03-27T12:33:13.967Z,4072
2017-03-27T12:34:22.854Z,4088
2017-03-27T12:35:31.461Z,4084
2017-03-27T12:36:40.355Z,4112
2017-03-27T12:37:48.942Z,4100
2017-03-27T12:38:57.888Z,4012
2017-03-27T12:40:07.422Z,4004
2017-03-27T12:41:16.338Z,4084
2017-03-27T12:42:25.228Z,4136
2017-03-27T12:43:33.844Z,4156
2017-03-27T12:44:42.757Z,4176
2017-03-27T12:45:52.293Z,4168
2017-03-27T12:47:01.054Z,4164
2017-03-27T12:48:09.937Z,4128
2017-03-27T12:49:18.830Z,4128
2017-03-27T12:50:27.423Z,4140
2017-03-27T12:51:36.021Z,4148
2017-03-27T12:52:44.918Z,4132
2017-03-27T12:53:53.493Z,4128
2017-03-27T12:55:02.402Z,4104
2017-03-27T12:56:11.328Z,4072
2017-03-27T12:57:19.952Z,4072
2017-03-27T12:58:28.854Z,4064
2017-03-27T12:59:37.779Z,4084
2017-03-27T13:00:46.991Z,4088
2017-03-27T13:01:56.228Z,4080
2017-03-27T13:03:05.197Z,4056
2017-03-27T13:04:13.781Z,4040
2017-03-27T13:05:22.675Z,4032
2017-03-27T13:06:31.580Z,4020
2017-03-27T13:07:40.790Z,4028
2017-03-27T13:08:50.003Z,4052
2017-03-27T13:09:58.899Z,4076
2017-03-27T13:11:08.115Z,4060
2017-03-27T13:12:17.347Z,4028
2017-03-27T13:13:25.934Z,4040
2017-03-27T13:14:34.832Z,4036
2017-03-27T13:15:44.673Z,4016
2017-03-27T13:16:54.452Z,3992
2017-03-27T13:18:03.976Z,3952
2017-03-27T13:19:12.750Z,3892
2017-03-27T13:20:21.656Z,4004
2017-03-27T13:21:30.264Z,3924
2017-03-27T13:22:39.181Z,3864
2017-03-27T13:23:48.076Z,3836
2017-03-27T13:24:57.071Z,3828
2017-03-27T13:26:06.612Z,3816
2017-03-27T13:27:15.192Z,3808
2017-03-27T13:28:24.088Z,3804
2017-03-27T13:29:32.982Z,3780
2017-03-27T13:30:41.868Z,3716
2017-03-27T13:31:50.760Z,3688
2017-03-27T13:32:59.489Z,3680
2017-03-27T13:34:08.710Z,3712
2017-03-27T13:35:17.285Z,3720
2017-03-27T13:36:26.220Z,3740
2017-03-27T13:37:35.551Z,3752
2017-03-27T13:38:44.158Z,3780
2017-03-27T13:39:53.052Z,3792
2017-03-27T13:41:01.952Z,3780
2017-03-27T13:42:10.854Z,3772
2017-03-27T13:43:20.060Z,3768
2017-03-27T13:44:28.960Z,3764
2017-03-27T13:45:37.848Z,3748
2017-03-27T13:46:46.743Z,3728
2017-03-27T13:47:55.632Z,3668
2017-03-27T13:49:04.209Z,3584
2017-03-27T13:50:13.101Z,3636
2017-03-27T13:51:22.005Z,3668
2017-03-27T13:52:30.898Z,3652
2017-03-27T13:53:39.788Z,3648
2017-03-27T13:54:48.684Z,3728
2017-03-27T13:55:57.608Z,3772
2017-03-27T13:57:06.184Z,3856
2017-03-27T13:58:15.388Z,3848
2017-03-27T13:59:24.277Z,3788
2017-03-27T14:00:32.852Z,3704
2017-03-27T14:01:41.419Z,3656
2017-03-27T14:02:50.318Z,3708
2017-03-27T14:03:59.395Z,3712
2017-03-27T14:05:08.433Z,3704
2017-03-27T14:06:17.353Z,3656
2017-03-27T14:07:26.248Z,3624
2017-03-27T14:08:35.145Z,3580
2017-03-27T14:09:43.723Z,3532
2017-03-27T14:10:52.642Z,3504
2017-03-27T14:12:01.546Z,3488
2017-03-27T14:13:10.450Z,3476
2017-03-27T14:14:19.064Z,3468
2017-03-27T14:15:29.751Z,3468
2017-03-27T14:16:38.980Z,3460
2017-03-27T14:17:47.555Z,3448
2017-03-27T14:18:56.567Z,3436
2017-03-27T14:20:05.776Z,3420
2017-03-27T14:21:14.985Z,3412
2017-03-27T14:22:23.584Z,3408
2017-03-27T14:23:32.164Z,3396
2017-03-27T14:24:40.736Z,3404
2017-03-27T14:25:49.946Z,3404
2017-03-27T14:26:59.155Z,3396
2017-03-27T14:28:08.052Z,3384
2017-03-27T14:29:17.659Z,3384
2017-03-27T14:30:26.316Z,3376
2017-03-27T14:31:35.208Z,3360
2017-03-27T14:32:44.417Z,3364
2017-03-27T14:33:52.989Z,3352
2017-03-27T14:35:02.213Z,3340
2017-03-27T14:36:11.106Z,3328
2017-03-27T14:37:19.998Z,3324
2017-03-27T14:38:28.576Z,3324
2017-03-27T14:39:37.792Z,3316
2017-03-27T14:40:46.368Z,3316
2017-03-27T14:41:55.262Z,3316
2017-03-27T14:43:04.476Z,3308
2017-03-27T14:44:13.062Z,3300
2017-03-27T14:45:21.645Z,3296
2017-03-27T14:46:30.537Z,3288
2017-03-27T14:47:39.122Z,3288
2017-03-27T14:48:48.030Z,3284
2017-03-27T14:49:56.924Z,3268
2017-03-27T14:51:05.820Z,3260
2017-03-27T14:52:14.728Z,3260
2017-03-27T14:53:23.981Z,3256
2017-03-27T14:54:33.399Z,3252
2017-03-27T14:55:42.615Z,3248
2017-03-27T14:56:51.825Z,3232
2017-03-27T14:58:01.050Z,3228
2017-03-27T14:59:10.267Z,3212
2017-03-27T15:00:18.846Z,3204
2017-03-27T15:01:27.739Z,3200
2017-03-27T15:02:36.968Z,3196
2017-03-27T15:03:46.496Z,3188
2017-03-27T15:04:55.708Z,3180
2017-03-27T15:06:04.940Z,3172
2017-03-27T15:07:14.154Z,3164
2017-03-27T15:08:23.370Z,3156
2017-03-27T15:09:32.581Z,3152
2017-03-27T15:10:41.472Z,3144
2017-03-27T15:11:50.060Z,3132
2017-03-27T15:12:59.279Z,3124
2017-03-27T15:14:08.498Z,3112
2017-03-27T15:15:17.075Z,3104
2017-03-27T15:16:26.600Z,3100
2017-03-27T15:17:35.179Z,3092
2017-03-27T15:18:43.758Z,3080
2017-03-27T15:19:52.918Z,3080
2017-03-27T15:21:01.501Z,3072
2017-03-27T15:22:10.714Z,3068
2017-03-27T15:23:19.292Z,3068
2017-03-27T15:24:27.873Z,3068
2017-03-27T15:30:49.468Z,3008
2017-03-27T15:31:58.701Z,3000
2017-03-27T15:38:06.210Z,2932
2017-03-27T15:39:15.993Z,2920
2017-03-27T15:40:24.907Z,2916
2017-03-27T15:41:33.817Z,2904
2017-03-27T15:42:42.409Z,2900
2017-03-27T15:43:51.947Z,2892
2017-03-27T15:45:01.484Z,2888
2017-03-27T15:46:10.389Z,2880
2017-03-27T15:47:19.631Z,2872
2017-03-27T15:48:28.542Z,2860
2017-03-27T15:49:37.468Z,2844
2017-03-27T15:50:46.065Z,2828
2017-03-27T15:51:55.817Z,2808
2017-03-27T15:53:04.731Z,2796
2017-03-27T15:54:13.667Z,2776
2017-03-27T15:55:22.899Z,2776
2017-03-27T15:56:32.465Z,2776
2017-03-27T15:57:42.007Z,2772
2017-03-27T15:58:50.925Z,2824
2017-03-27T16:00:00.193Z,2804